createdAt,value
2024-05-09T00:01:22.540Z,0.52
2024-05-09T00:02:22.614Z,0.52
2024-05-09T00:03:22.615Z,0.51
2024-05-09T00:04:22.566Z,0.51
2024-05-09T00:05:22.674Z,0.51
2024-05-09T00:06:22.528Z,0.50
2024-05-09T00:07:22.543Z,0.50
2024-05-09T00:09:22.536Z,0.51
2024-05-09T00:10:29.147Z,0.52
2024-05-09T00:11:23.790Z,0.52
2024-05-09T00:12:22.624Z,0.52
2024-05-09T00:13:22.549Z,0.52
2024-05-09T00:14:22.683Z,0.52
2024-05-09T00:15:22.552Z,0.51
2024-05-09T00:16:22.549Z,0.52
2024-05-09T00:17:22.645Z,0.50
2024-05-09T00:18:22.703Z,0.51
2024-05-09T00:20:28.419Z,0.51
2024-05-09T00:21:23.573Z,0.51
2024-05-09T00:22:22.552Z,0.51
2024-05-09T00:23:22.595Z,0.51
2024-05-09T00:24:22.552Z,0.51
2024-05-09T00:25:22.600Z,0.51
2024-05-09T00:27:22.588Z,0.52
2024-05-09T00:28:22.613Z,0.52
2024-05-09T00:29:22.634Z,0.51
2024-05-09T00:30:31.083Z,0.50
2024-05-09T00:31:23.566Z,0.51
2024-05-09T00:32:22.654Z,0.51
2024-05-09T00:33:22.730Z,0.51
2024-05-09T00:34:22.667Z,0.50
2024-05-09T00:35:22.704Z,0.50
2024-05-09T00:36:22.573Z,0.51
2024-05-09T00:37:22.582Z,0.50
2024-05-09T00:38:22.618Z,0.51
2024-05-09T00:39:22.591Z,0.50
2024-05-09T00:40:30.965Z,0.52
2024-05-09T00:41:23.657Z,0.52
2024-05-09T00:42:22.628Z,0.52
2024-05-09T00:43:22.635Z,0.52
2024-05-09T00:44:22.819Z,0.51
2024-05-09T00:45:22.658Z,0.51
2024-05-09T00:46:22.620Z,0.52
2024-05-09T00:47:22.765Z,0.50
2024-05-09T00:48:22.825Z,0.51
2024-05-09T00:49:22.894Z,0.51
2024-05-09T00:50:29.601Z,0.51
2024-05-09T00:51:23.631Z,0.51
2024-05-09T00:52:22.623Z,0.51
2024-05-09T00:53:22.735Z,0.51
2024-05-09T00:54:22.635Z,0.52
2024-05-09T00:55:22.632Z,0.51
2024-05-09T00:56:22.715Z,0.50
2024-05-09T00:57:22.648Z,0.51
2024-05-09T00:58:22.644Z,0.51
2024-05-09T00:59:22.717Z,0.52
2024-05-09T01:00:31.094Z,0.51
2024-05-09T01:01:23.680Z,0.51
2024-05-09T01:02:22.790Z,0.52
2024-05-09T01:03:23.006Z,0.51
2024-05-09T01:04:22.681Z,0.52
2024-05-09T01:05:22.700Z,0.52
2024-05-09T01:06:22.687Z,0.51
2024-05-09T01:07:22.707Z,0.51
2024-05-09T01:08:22.715Z,0.51
2024-05-09T01:09:22.734Z,0.51
2024-05-09T01:10:28.183Z,0.51
2024-05-09T01:11:23.780Z,0.51
2024-05-09T01:12:22.804Z,0.51
2024-05-09T01:13:22.706Z,0.51
2024-05-09T01:14:22.766Z,0.51
2024-05-09T01:15:22.699Z,0.51
2024-05-09T01:16:22.691Z,0.50
2024-05-09T01:17:22.841Z,0.51
2024-05-09T01:18:22.851Z,0.52
2024-05-09T01:19:22.856Z,0.50
2024-05-09T01:21:22.815Z,0.51
2024-05-09T01:22:22.826Z,0.51
2024-05-09T01:23:22.918Z,0.50
2024-05-09T01:24:22.937Z,0.50
2024-05-09T01:25:22.988Z,0.51
2024-05-09T01:26:23.139Z,0.51
2024-05-09T01:27:23.112Z,0.51
2024-05-09T01:28:23.169Z,0.50
2024-05-09T01:29:23.330Z,0.51
2024-05-09T01:30:31.744Z,0.52
2024-05-09T01:31:24.279Z,0.52
2024-05-09T01:32:23.404Z,0.51
2024-05-09T01:33:23.548Z,0.52
2024-05-09T01:34:23.399Z,0.52
2024-05-09T01:35:23.422Z,0.51
2024-05-09T01:36:23.286Z,0.52
2024-05-09T01:37:23.283Z,0.52
2024-05-09T01:38:23.278Z,0.51
2024-05-09T01:39:23.280Z,0.52
2024-05-09T01:41:23.384Z,0.51
2024-05-09T01:42:23.470Z,0.50
2024-05-09T01:43:23.455Z,0.50
2024-05-09T01:44:23.598Z,0.51
2024-05-09T01:45:23.571Z,0.52
2024-05-09T01:46:23.639Z,0.52
2024-05-09T01:47:23.876Z,0.52
2024-05-09T01:48:23.907Z,0.51
2024-05-09T01:49:24.043Z,0.52
2024-05-09T01:50:35.747Z,0.53
2024-05-09T01:51:24.900Z,0.53
2024-05-09T01:52:23.873Z,0.53
2024-05-09T01:53:23.899Z,0.52
2024-05-09T01:54:23.880Z,0.52
2024-05-09T01:55:23.864Z,0.52
2024-05-09T01:56:23.933Z,0.51
2024-05-09T01:57:23.890Z,0.53
2024-05-09T01:58:23.874Z,0.52
2024-05-09T01:59:23.972Z,0.52
2024-05-09T02:00:33.812Z,0.52
2024-05-09T02:01:24.985Z,0.52
2024-05-09T02:02:23.993Z,0.52
2024-05-09T02:03:24.113Z,0.52
2024-05-09T02:04:24.025Z,0.53
2024-05-09T02:05:24.015Z,0.52
2024-05-09T02:06:23.905Z,0.53
2024-05-09T02:07:23.918Z,0.52
2024-05-09T02:08:23.955Z,0.52
2024-05-09T02:09:23.898Z,0.53
2024-05-09T02:10:31.697Z,0.53
2024-05-09T02:11:25.038Z,0.53
2024-05-09T02:12:24.033Z,0.53
2024-05-09T02:13:23.923Z,0.53
2024-05-09T02:14:24.072Z,0.52
2024-05-09T02:15:23.938Z,0.52
2024-05-09T02:16:23.961Z,0.52
2024-05-09T02:17:24.123Z,0.51
2024-05-09T02:18:24.046Z,0.52
2024-05-09T02:19:24.020Z,0.52
2024-05-09T02:20:33.069Z,0.51
2024-05-09T02:21:24.972Z,0.51
2024-05-09T02:22:23.948Z,0.51
2024-05-09T02:23:24.028Z,0.51
2024-05-09T02:24:23.988Z,0.52
2024-05-09T02:25:23.959Z,0.51
2024-05-09T02:26:23.987Z,0.52
2024-05-09T02:27:23.965Z,0.50
2024-05-09T02:28:23.974Z,0.52
2024-05-09T02:29:24.056Z,0.52
2024-05-09T02:30:30.910Z,0.51
2024-05-09T02:31:25.099Z,0.51
2024-05-09T02:32:24.287Z,0.51
2024-05-09T02:33:24.336Z,0.51
2024-05-09T02:34:24.129Z,0.51
2024-05-09T02:35:24.218Z,0.52
2024-05-09T02:36:24.101Z,0.51
2024-05-09T02:37:24.097Z,0.51
2024-05-09T02:38:24.151Z,0.51
2024-05-09T02:39:24.118Z,0.50
2024-05-09T02:41:24.286Z,0.52
2024-05-09T02:42:24.238Z,0.51
2024-05-09T02:43:24.324Z,0.51
2024-05-09T02:44:24.449Z,0.50
2024-05-09T02:45:24.420Z,0.51
2024-05-09T02:46:24.491Z,0.52
2024-05-09T02:47:24.690Z,0.52
2024-05-09T02:48:24.754Z,0.52
2024-05-09T02:49:24.779Z,0.51
2024-05-09T02:50:33.144Z,0.51
2024-05-09T02:51:25.724Z,0.52
2024-05-09T02:52:24.742Z,0.52
2024-05-09T02:53:24.771Z,0.52
2024-05-09T02:54:24.719Z,0.52
2024-05-09T02:55:24.770Z,0.52
2024-05-09T02:56:24.755Z,0.52
2024-05-09T02:57:24.739Z,0.51
2024-05-09T02:58:24.739Z,0.50
2024-05-09T02:59:24.799Z,0.51
2024-05-09T03:00:29.966Z,0.51
2024-05-09T03:01:25.890Z,0.51
2024-05-09T03:02:24.832Z,0.51
2024-05-09T03:03:25.065Z,0.51
2024-05-09T03:04:24.814Z,0.51
2024-05-09T03:05:24.806Z,0.51
2024-05-09T03:06:24.764Z,0.50
2024-05-09T03:07:24.791Z,0.51
2024-05-09T03:08:24.831Z,0.51
2024-05-09T03:09:24.766Z,0.52
2024-05-09T03:10:28.591Z,0.51
2024-05-09T03:11:25.053Z,0.51
2024-05-09T03:12:24.887Z,0.51
2024-05-09T03:13:24.833Z,0.51
2024-05-09T03:14:24.940Z,0.52
2024-05-09T03:15:24.808Z,0.51
2024-05-09T03:16:24.805Z,0.52
2024-05-09T03:17:25.047Z,0.52
2024-05-09T03:18:24.959Z,0.51
2024-05-09T03:19:24.875Z,0.52
2024-05-09T03:20:32.293Z,0.50
2024-05-09T03:21:25.815Z,0.51
2024-05-09T03:22:24.812Z,0.51
2024-05-09T03:23:24.871Z,0.51
2024-05-09T03:24:24.812Z,0.50
2024-05-09T03:25:24.857Z,0.51
2024-05-09T03:26:24.893Z,0.52
2024-05-09T03:27:24.836Z,0.51
2024-05-09T03:28:24.815Z,0.51
2024-05-09T03:29:25.027Z,0.50
2024-05-09T03:30:31.217Z,0.51
2024-05-09T03:31:25.901Z,0.51
2024-05-09T03:32:24.970Z,0.51
2024-05-09T03:33:25.121Z,0.51
2024-05-09T03:34:25.004Z,0.52
2024-05-09T03:35:25.068Z,0.52
2024-05-09T03:36:24.914Z,0.52
2024-05-09T03:37:24.952Z,0.51
2024-05-09T03:38:24.953Z,0.52
2024-05-09T03:39:24.902Z,0.51
2024-05-09T03:40:28.949Z,0.51
2024-05-09T03:41:26.181Z,0.51
2024-05-09T03:42:25.016Z,0.51
2024-05-09T03:43:24.973Z,0.52
2024-05-09T03:44:25.068Z,0.51
2024-05-09T03:45:24.980Z,0.52
2024-05-09T03:46:24.987Z,0.52
2024-05-09T03:47:25.080Z,0.52
2024-05-09T03:48:25.141Z,0.51
2024-05-09T03:49:25.173Z,0.52
2024-05-09T03:50:30.309Z,0.52
2024-05-09T03:51:26.045Z,0.52
2024-05-09T03:52:25.034Z,0.52
2024-05-09T03:53:25.313Z,0.52
2024-05-09T03:54:25.084Z,0.52
2024-05-09T03:55:25.057Z,0.52
2024-05-09T03:56:25.105Z,0.54
2024-05-09T03:57:25.085Z,0.52
2024-05-09T03:58:25.059Z,0.52
2024-05-09T03:59:25.235Z,0.52
2024-05-09T04:00:31.214Z,0.52
2024-05-09T04:01:26.169Z,0.52
2024-05-09T04:02:25.216Z,0.53
2024-05-09T04:03:25.341Z,0.52
2024-05-09T04:04:25.291Z,0.53
2024-05-09T04:05:25.144Z,0.52
2024-05-09T04:06:25.156Z,0.53
2024-05-09T04:07:25.114Z,0.52
2024-05-09T04:08:25.186Z,0.52
2024-05-09T04:09:25.161Z,0.51
2024-05-09T04:10:31.264Z,0.51
2024-05-09T04:11:26.350Z,0.51
2024-05-09T04:12:25.258Z,0.51
2024-05-09T04:13:25.231Z,0.51
2024-05-09T04:14:25.249Z,0.51
2024-05-09T04:15:25.225Z,0.52
2024-05-09T04:16:25.223Z,0.50
2024-05-09T04:17:25.323Z,0.51
2024-05-09T04:18:25.331Z,0.51
2024-05-09T04:19:25.314Z,0.51
2024-05-09T04:20:35.900Z,0.51
2024-05-09T04:21:26.327Z,0.51
2024-05-09T04:22:33.545Z,0.50
2024-05-09T04:23:33.696Z,0.50
2024-05-09T04:24:33.492Z,0.50
2024-05-09T04:25:33.532Z,0.50
2024-05-09T04:26:33.614Z,0.50
2024-05-09T04:27:33.541Z,0.51
2024-05-09T04:28:33.522Z,0.50
2024-05-09T04:29:33.545Z,0.52
2024-05-09T04:30:38.275Z,0.52
2024-05-09T04:31:45.609Z,0.50
2024-05-09T04:32:45.664Z,0.50
2024-05-09T04:33:45.645Z,0.50
2024-05-09T04:34:45.615Z,0.50
2024-05-09T04:35:45.735Z,0.50
2024-05-09T04:36:45.546Z,0.50
2024-05-09T04:37:45.615Z,0.51
2024-05-09T04:38:45.614Z,0.51
2024-05-09T04:39:45.609Z,0.51
2024-05-09T04:40:45.629Z,0.51
2024-05-09T04:41:45.604Z,0.50
2024-05-09T04:42:45.608Z,0.51
2024-05-09T04:43:45.624Z,0.51
2024-05-09T04:44:45.574Z,0.51
2024-05-09T04:45:45.614Z,0.51
2024-05-09T04:46:45.627Z,0.51
2024-05-09T04:47:45.693Z,0.51
2024-05-09T04:48:45.771Z,0.50
2024-05-09T04:49:45.666Z,0.51
2024-05-09T04:50:45.645Z,0.51
2024-05-09T04:51:45.594Z,0.51
2024-05-09T04:52:45.670Z,0.52
2024-05-09T04:53:45.627Z,0.52
2024-05-09T04:54:45.598Z,0.52
2024-05-09T04:55:45.711Z,0.52
2024-05-09T04:56:45.712Z,0.52
2024-05-09T04:57:45.754Z,0.52
2024-05-09T04:58:45.858Z,0.52
2024-05-09T04:59:45.900Z,0.51
2024-05-09T05:00:46.050Z,0.52
2024-05-09T05:01:46.216Z,0.51
2024-05-09T05:02:46.171Z,0.51
2024-05-09T05:03:46.383Z,0.51
2024-05-09T05:04:46.303Z,0.51
2024-05-09T05:05:46.656Z,0.51
2024-05-09T05:06:46.388Z,0.51
2024-05-09T05:07:46.451Z,0.51
2024-05-09T05:08:46.800Z,0.51
2024-05-09T05:09:46.545Z,0.52
2024-05-09T05:10:47.175Z,0.51
2024-05-09T05:11:46.751Z,0.51
2024-05-09T05:12:46.735Z,0.51
2024-05-09T05:13:46.849Z,0.52
2024-05-09T05:14:46.860Z,0.51
2024-05-09T05:15:46.974Z,0.51
2024-05-09T05:16:47.062Z,0.52
2024-05-09T05:17:47.252Z,0.52
2024-05-09T05:18:47.238Z,0.52
2024-05-09T05:19:47.343Z,0.51
2024-05-09T05:20:47.390Z,0.51
2024-05-09T05:21:47.339Z,0.52
2024-05-09T05:22:47.457Z,0.51
2024-05-09T05:23:47.506Z,0.52
2024-05-09T05:24:47.514Z,0.51
2024-05-09T05:25:47.699Z,0.52
2024-05-09T05:26:47.654Z,0.52
2024-05-09T05:27:47.849Z,0.51
2024-05-09T05:28:47.854Z,0.52
2024-05-09T05:29:47.892Z,0.52
2024-05-09T05:30:47.961Z,0.52
2024-05-09T05:31:48.027Z,0.51
2024-05-09T05:32:48.212Z,0.52
2024-05-09T05:33:48.217Z,0.51
2024-05-09T05:34:48.249Z,0.52
2024-05-09T05:35:48.337Z,0.50
2024-05-09T05:36:48.335Z,0.51
2024-05-09T05:37:48.397Z,0.51
2024-05-09T05:38:48.553Z,0.52
2024-05-09T05:39:48.522Z,0.51
2024-05-09T05:40:48.602Z,0.50
2024-05-09T05:41:48.598Z,0.52
2024-05-09T05:42:48.656Z,0.50
2024-05-09T05:43:48.809Z,0.51
2024-05-09T05:44:48.792Z,0.51
2024-05-09T05:45:48.833Z,0.51
2024-05-09T05:46:48.945Z,0.51
2024-05-09T05:47:49.072Z,0.50
2024-05-09T05:48:49.203Z,0.51
2024-05-09T05:49:49.015Z,0.50
2024-05-09T05:50:49.177Z,0.50
2024-05-09T05:51:49.074Z,0.51
2024-05-09T05:52:49.152Z,0.51
2024-05-09T05:53:49.219Z,0.51
2024-05-09T05:54:49.220Z,0.51
2024-05-09T05:55:49.317Z,0.51
2024-05-09T05:56:49.279Z,0.51
2024-05-09T05:57:49.341Z,0.50
2024-05-09T05:58:49.330Z,0.50
2024-05-09T05:59:49.334Z,0.50
2024-05-09T06:00:49.413Z,0.51
2024-05-09T06:01:49.418Z,0.50
2024-05-09T06:02:49.551Z,0.50
2024-05-09T06:03:49.601Z,0.51
2024-05-09T06:04:49.683Z,0.53
2024-05-09T06:05:49.699Z,0.52
2024-05-09T06:06:49.728Z,0.52
2024-05-09T06:07:49.891Z,0.53
2024-05-09T06:08:50.031Z,0.53
2024-05-09T06:09:50.518Z,0.54
2024-05-09T06:10:50.167Z,0.57
2024-05-09T06:11:50.163Z,0.56
2024-05-09T06:12:50.179Z,0.58
2024-05-09T06:13:50.246Z,0.58
2024-05-09T06:14:50.270Z,0.58
2024-05-09T06:15:50.353Z,0.58
2024-05-09T06:16:50.506Z,0.58
2024-05-09T06:17:50.585Z,0.58
2024-05-09T06:18:50.700Z,0.60
2024-05-09T06:19:50.694Z,0.60
2024-05-09T06:20:50.739Z,0.60
2024-05-09T06:21:50.719Z,0.59
2024-05-09T06:22:50.851Z,0.60
2024-05-09T06:23:50.867Z,0.58
2024-05-09T06:24:50.936Z,0.59
2024-05-09T06:25:51.139Z,0.60
2024-05-09T06:26:51.057Z,0.59
2024-05-09T06:27:51.142Z,0.60
2024-05-09T06:28:51.279Z,0.60
2024-05-09T06:29:51.250Z,0.60
2024-05-09T06:30:51.311Z,0.59
2024-05-09T06:31:51.434Z,0.62
2024-05-09T06:32:51.561Z,0.59
2024-05-09T06:33:51.668Z,0.61
2024-05-09T06:34:51.638Z,0.61
2024-05-09T06:35:51.743Z,0.61
2024-05-09T06:36:51.718Z,0.60
2024-05-09T06:38:51.839Z,0.61
2024-05-09T06:39:51.918Z,0.59
2024-05-09T06:40:52.104Z,0.59
2024-05-09T06:41:52.115Z,0.60
2024-05-09T06:42:52.145Z,0.59
2024-05-09T06:43:52.320Z,0.58
2024-05-09T06:44:52.250Z,0.58
2024-05-09T06:45:52.432Z,0.58
2024-05-09T06:46:52.582Z,0.56
2024-05-09T06:47:52.583Z,0.57
2024-05-09T06:48:53.035Z,0.56
2024-05-09T06:49:52.607Z,0.54
2024-05-09T06:50:52.663Z,0.53
2024-05-09T06:51:52.644Z,0.52
2024-05-09T06:52:52.695Z,0.51
2024-05-09T06:53:52.721Z,0.51
2024-05-09T06:54:52.786Z,0.51
2024-05-09T06:55:52.971Z,0.52
2024-05-09T06:56:52.889Z,0.51
2024-05-09T06:57:52.880Z,0.51
2024-05-09T06:58:52.910Z,0.53
2024-05-09T06:59:52.901Z,0.53
2024-05-09T07:00:52.993Z,0.54
2024-05-09T07:01:52.989Z,0.54
2024-05-09T07:02:53.099Z,0.55
2024-05-09T07:03:53.208Z,0.55
2024-05-09T07:04:53.381Z,0.56
2024-05-09T07:05:53.196Z,0.57
2024-05-09T07:06:53.183Z,0.57
2024-05-09T07:07:53.226Z,0.57
2024-05-09T07:08:53.262Z,0.59
2024-05-09T07:09:53.250Z,0.58
2024-05-09T07:10:53.465Z,0.58
2024-05-09T07:11:53.439Z,0.60
2024-05-09T07:12:53.405Z,0.60
2024-05-09T07:13:53.503Z,0.60
2024-05-09T07:14:53.500Z,0.60
2024-05-09T07:15:53.542Z,0.61
2024-05-09T07:16:53.682Z,0.60
2024-05-09T07:17:53.700Z,0.62
2024-05-09T07:18:53.787Z,0.61
2024-05-09T07:19:53.689Z,0.62
2024-05-09T07:20:53.733Z,0.61
2024-05-09T07:21:53.750Z,0.62
2024-05-09T07:22:53.808Z,0.62
2024-05-09T07:23:53.851Z,0.62
2024-05-09T07:24:53.888Z,0.62
2024-05-09T07:25:53.956Z,0.62
2024-05-09T07:26:54.094Z,0.63
2024-05-09T07:27:54.003Z,0.62
2024-05-09T07:28:54.062Z,0.63
2024-05-09T07:29:54.104Z,0.64
2024-05-09T07:30:54.117Z,0.63
2024-05-09T07:31:54.225Z,0.63
2024-05-09T07:32:54.340Z,0.64
2024-05-09T07:33:54.382Z,0.64
2024-05-09T07:34:54.356Z,0.63
2024-05-09T07:35:54.335Z,0.64
2024-05-09T07:36:54.385Z,0.63
2024-05-09T07:37:54.511Z,0.64
2024-05-09T07:38:54.464Z,0.65
2024-05-09T07:39:54.519Z,0.64
2024-05-09T07:40:54.561Z,0.63
2024-05-09T07:41:54.567Z,0.64
2024-05-09T07:42:54.597Z,0.65
2024-05-09T07:43:54.654Z,0.64
2024-05-09T07:44:55.598Z,0.65
2024-05-09T07:45:56.497Z,0.64
2024-05-09T07:48:13.899Z,0.65
2024-05-09T07:49:44.122Z,0.65
2024-05-09T07:50:34.896Z,0.65
2024-05-09T07:52:38.442Z,0.65
2024-05-09T07:53:21.801Z,0.65
2024-05-09T07:53:57.310Z,0.65
2024-05-09T07:54:55.864Z,0.65
2024-05-09T07:55:55.261Z,0.66
2024-05-09T07:56:55.210Z,0.68
2024-05-09T07:57:54.804Z,0.71
2024-05-09T07:58:54.823Z,0.72
2024-05-09T07:59:54.760Z,0.72
2024-05-09T08:00:54.909Z,0.71
2024-05-09T08:01:54.916Z,0.71
2024-05-09T08:02:54.798Z,0.70
2024-05-09T08:03:54.989Z,0.69
2024-05-09T08:04:54.851Z,0.69
2024-05-09T08:05:54.810Z,0.69
2024-05-09T08:06:54.848Z,0.69
2024-05-09T08:07:54.816Z,0.68
2024-05-09T08:08:54.796Z,0.67
2024-05-09T08:09:54.866Z,0.68
2024-05-09T08:10:54.867Z,0.67
2024-05-09T08:11:54.904Z,0.66
2024-05-09T08:12:54.906Z,0.67
2024-05-09T08:13:54.968Z,0.68
2024-05-09T08:14:54.950Z,0.66
2024-05-09T08:15:55.027Z,0.67
2024-05-09T08:16:55.057Z,0.66
2024-05-09T08:17:55.279Z,0.66
2024-05-09T08:18:55.154Z,0.66
2024-05-09T08:19:55.117Z,0.66
2024-05-09T08:20:55.121Z,0.67
2024-05-09T08:21:55.254Z,0.66
2024-05-09T08:22:55.192Z,0.66
2024-05-09T08:23:55.212Z,0.67
2024-05-09T08:24:55.300Z,0.67
2024-05-09T08:25:55.241Z,0.68
2024-05-09T08:26:55.255Z,0.66
2024-05-09T08:27:55.355Z,0.66
2024-05-09T08:28:55.289Z,0.66
2024-05-09T08:29:55.363Z,0.66
2024-05-09T08:30:55.469Z,0.68
2024-05-09T08:31:55.415Z,0.67
2024-05-09T08:32:55.500Z,0.68
2024-05-09T08:33:55.501Z,0.68
2024-05-09T08:34:55.575Z,0.67
2024-05-09T08:35:55.459Z,0.68
2024-05-09T08:36:56.302Z,0.69
2024-05-09T08:37:55.640Z,0.68
2024-05-09T08:38:55.531Z,0.68
2024-05-09T08:39:55.697Z,0.67
2024-05-09T08:40:55.657Z,0.68
2024-05-09T08:41:55.593Z,0.68
2024-05-09T08:42:55.685Z,0.67
2024-05-09T08:43:55.634Z,0.68
2024-05-09T08:44:55.699Z,0.68
2024-05-09T08:45:55.668Z,0.69
2024-05-09T08:46:55.697Z,0.69
2024-05-09T08:47:55.830Z,0.68
2024-05-09T08:48:55.881Z,0.69
2024-05-09T08:49:55.864Z,0.69
2024-05-09T08:50:55.824Z,0.68
2024-05-09T08:51:55.837Z,0.69
2024-05-09T08:52:55.795Z,0.69
2024-05-09T08:53:55.790Z,0.68
2024-05-09T08:54:55.887Z,0.69
2024-05-09T08:55:55.852Z,0.69
2024-05-09T08:56:55.852Z,0.71
2024-05-09T08:57:55.921Z,0.70
2024-05-09T08:58:55.909Z,0.70
2024-05-09T08:59:55.924Z,0.70
2024-05-09T09:00:56.021Z,0.69
2024-05-09T09:01:56.009Z,0.70
2024-05-09T09:02:56.023Z,0.71
2024-05-09T09:03:56.137Z,0.70
2024-05-09T09:04:56.029Z,0.69
2024-05-09T09:05:56.001Z,0.68
2024-05-09T09:06:58.219Z,0.70
2024-05-09T09:07:56.019Z,0.70
2024-05-09T09:08:56.027Z,0.69
2024-05-09T09:09:56.019Z,0.67
2024-05-09T09:10:56.029Z,0.68
2024-05-09T09:11:56.048Z,0.69
2024-05-09T09:12:56.272Z,0.69
2024-05-09T09:13:56.032Z,0.69
2024-05-09T09:14:56.034Z,0.69
2024-05-09T09:15:56.075Z,0.70
2024-05-09T09:16:56.036Z,0.69
2024-05-09T09:17:56.162Z,0.68
2024-05-09T09:18:56.115Z,0.67
2024-05-09T09:19:56.126Z,0.67
2024-05-09T09:20:56.036Z,0.68
2024-05-09T09:21:56.072Z,0.67
2024-05-09T09:22:56.058Z,0.67
2024-05-09T09:23:56.035Z,0.66
2024-05-09T09:24:56.127Z,0.65
2024-05-09T09:25:56.066Z,0.64
2024-05-09T09:26:56.037Z,0.64
2024-05-09T09:27:56.083Z,0.63
2024-05-09T09:28:56.047Z,0.64
2024-05-09T09:29:56.038Z,0.63
2024-05-09T09:30:56.131Z,0.63
2024-05-09T09:31:56.061Z,0.62
2024-05-09T09:32:56.124Z,0.62
2024-05-09T09:33:56.126Z,0.61
2024-05-09T09:34:56.134Z,0.61
2024-05-09T09:35:56.033Z,0.61
2024-05-09T09:36:56.098Z,0.61
2024-05-09T09:37:56.078Z,0.61
2024-05-09T09:38:56.080Z,0.59
2024-05-09T09:39:56.096Z,0.60
2024-05-09T09:40:56.184Z,0.61
2024-05-09T09:41:56.057Z,0.59
2024-05-09T09:42:56.122Z,0.59
2024-05-09T09:43:56.127Z,0.59
2024-05-09T09:45:04.223Z,0.58
2024-05-09T09:45:57.203Z,0.58
2024-05-09T09:46:56.119Z,0.59
2024-05-09T09:47:56.129Z,0.59
2024-05-09T09:48:56.171Z,0.60
2024-05-09T09:49:56.091Z,0.60
2024-05-09T09:50:56.095Z,0.60
2024-05-09T09:51:56.238Z,0.60
2024-05-09T09:52:56.082Z,0.58
2024-05-09T09:53:56.083Z,0.58
2024-05-09T09:54:56.152Z,0.58
2024-05-09T09:55:56.099Z,0.58
2024-05-09T09:56:56.098Z,0.57
2024-05-09T09:57:56.317Z,0.57
2024-05-09T09:58:56.120Z,0.57
2024-05-09T09:59:56.132Z,0.56
2024-05-09T10:00:56.362Z,0.55
2024-05-09T10:01:56.330Z,0.56
2024-05-09T10:02:56.235Z,0.58
2024-05-09T10:03:56.293Z,0.58
2024-05-09T10:04:56.279Z,0.56
2024-05-09T10:05:56.228Z,0.58
2024-05-09T10:06:56.314Z,0.57
2024-05-09T10:07:56.297Z,0.56
2024-05-09T10:08:56.346Z,0.57
2024-05-09T10:09:56.462Z,0.57
2024-05-09T10:10:56.515Z,0.57
2024-05-09T10:12:56.522Z,0.58
2024-05-09T10:13:56.505Z,0.58
2024-05-09T10:14:56.557Z,0.57
2024-05-09T10:15:56.754Z,0.57
2024-05-09T10:16:56.632Z,0.57
2024-05-09T10:17:56.815Z,0.56
2024-05-09T10:18:56.872Z,0.55
2024-05-09T10:19:56.856Z,0.58
2024-05-09T10:20:56.765Z,0.56
2024-05-09T10:21:56.894Z,0.56
2024-05-09T10:22:56.873Z,0.57
2024-05-09T10:23:56.940Z,0.56
2024-05-09T10:24:56.954Z,0.56
2024-05-09T10:25:56.990Z,0.57
2024-05-09T10:26:57.014Z,0.57
2024-05-09T10:27:57.103Z,0.56
2024-05-09T10:28:57.104Z,0.57
2024-05-09T10:29:57.226Z,0.56
2024-05-09T10:30:57.225Z,0.56
2024-05-09T10:31:57.217Z,0.57
2024-05-09T10:32:57.313Z,0.57
2024-05-09T10:33:57.440Z,0.56
2024-05-09T10:34:57.411Z,0.56
2024-05-09T10:35:57.370Z,0.55
2024-05-09T10:36:57.487Z,0.52
2024-05-09T10:37:57.472Z,0.54
2024-05-09T10:38:57.494Z,0.54
2024-05-09T10:39:57.570Z,0.54
2024-05-09T10:40:57.579Z,0.53
2024-05-09T10:41:57.613Z,0.53
2024-05-09T10:42:57.780Z,0.53
2024-05-09T10:43:57.714Z,0.53
2024-05-09T10:44:57.772Z,0.52
2024-05-09T10:45:57.844Z,0.51
2024-05-09T10:46:57.875Z,0.50
2024-05-09T10:47:57.954Z,0.51
2024-05-09T10:48:58.096Z,0.50
2024-05-09T10:49:58.020Z,0.52
2024-05-09T10:50:57.998Z,0.51
2024-05-09T10:51:58.158Z,0.51
2024-05-09T10:52:58.085Z,0.51
2024-05-09T10:53:58.164Z,0.50
2024-05-09T10:54:58.216Z,0.50
2024-05-09T10:55:58.217Z,0.50
2024-05-09T10:56:58.276Z,0.52
2024-05-09T10:57:58.409Z,0.51
2024-05-09T10:58:58.823Z,0.52
2024-05-09T10:59:58.437Z,0.52
2024-05-09T11:00:58.886Z,0.51
2024-05-09T11:01:58.580Z,0.50
2024-05-09T11:02:58.601Z,0.52
2024-05-09T11:03:58.796Z,0.51
2024-05-09T11:04:58.729Z,0.51
2024-05-09T11:05:58.760Z,0.51
2024-05-09T11:06:59.259Z,0.51
2024-05-09T11:07:58.812Z,0.52
2024-05-09T11:08:58.865Z,0.51
2024-05-09T11:09:58.947Z,0.51
2024-05-09T11:10:58.964Z,0.52
2024-05-09T11:11:59.024Z,0.51
2024-05-09T11:12:59.152Z,0.52
2024-05-09T11:13:59.096Z,0.50
2024-05-09T11:14:59.133Z,0.51
2024-05-09T11:15:59.306Z,0.51
2024-05-09T11:16:59.224Z,0.51
2024-05-09T11:17:59.329Z,0.53
2024-05-09T11:18:59.674Z,0.51
2024-05-09T11:19:59.431Z,0.52
2024-05-09T11:20:59.409Z,0.52
2024-05-09T11:21:59.487Z,0.52
2024-05-09T11:22:59.479Z,0.51
2024-05-09T11:23:59.635Z,0.52
2024-05-09T11:24:59.635Z,0.51
2024-05-09T11:25:59.659Z,0.51
2024-05-09T11:26:59.695Z,0.51
2024-05-09T11:27:59.775Z,0.52
2024-05-09T11:28:59.809Z,0.52
2024-05-09T11:29:59.834Z,0.51
2024-05-09T11:31:00.136Z,0.50
2024-05-09T11:31:59.966Z,0.51
2024-05-09T11:33:00.155Z,0.51
2024-05-09T11:34:00.128Z,0.51
2024-05-09T11:35:00.049Z,0.52
2024-05-09T11:36:00.091Z,0.51
2024-05-09T11:37:00.228Z,0.50
2024-05-09T11:38:00.260Z,0.51
2024-05-09T11:39:00.253Z,0.50
2024-05-09T11:40:00.416Z,0.51
2024-05-09T11:41:00.353Z,0.50
2024-05-09T11:42:00.419Z,0.50
2024-05-09T11:43:00.505Z,0.51
2024-05-09T11:44:00.486Z,0.50
2024-05-09T11:45:00.503Z,0.50
2024-05-09T11:46:00.718Z,0.52
2024-05-09T11:47:00.580Z,0.51
2024-05-09T11:48:00.770Z,0.51
2024-05-09T11:49:00.877Z,0.50
2024-05-09T11:50:00.774Z,0.51
2024-05-09T11:51:00.773Z,0.52
2024-05-09T11:52:00.915Z,0.51
2024-05-09T11:53:00.873Z,0.51
2024-05-09T11:54:00.909Z,0.52
2024-05-09T11:55:01.013Z,0.52
2024-05-09T11:56:00.986Z,0.51
2024-05-09T11:57:01.030Z,0.52
2024-05-09T11:58:01.127Z,0.53
2024-05-09T11:59:01.114Z,0.50
2024-05-09T12:00:01.154Z,0.51
2024-05-09T12:01:01.298Z,0.51
2024-05-09T12:02:01.413Z,0.51
2024-05-09T12:03:01.314Z,0.52
2024-05-09T12:04:01.789Z,0.51
2024-05-09T12:05:01.452Z,0.50
2024-05-09T12:06:01.509Z,0.50
2024-05-09T12:07:01.497Z,0.50
2024-05-09T12:08:01.519Z,0.50
2024-05-09T12:09:01.523Z,0.52
2024-05-09T12:10:01.623Z,0.50
2024-05-09T12:11:01.787Z,0.50
2024-05-09T12:12:01.633Z,0.52
2024-05-09T12:13:01.799Z,0.51
2024-05-09T12:14:01.750Z,0.51
2024-05-09T12:15:01.758Z,0.51
2024-05-09T12:16:01.953Z,0.54
2024-05-09T12:17:01.879Z,0.53
2024-05-09T12:18:03.894Z,0.53
2024-05-09T12:19:02.137Z,0.52
2024-05-09T12:20:02.046Z,0.52
2024-05-09T12:21:02.088Z,0.53
2024-05-09T12:22:02.186Z,0.53
2024-05-09T12:23:02.179Z,0.53
2024-05-09T12:24:02.219Z,0.52
2024-05-09T12:25:02.291Z,0.53
2024-05-09T12:26:02.292Z,0.54
2024-05-09T12:27:02.323Z,0.55
2024-05-09T12:28:02.434Z,0.55
2024-05-09T12:29:02.444Z,0.55
2024-05-09T12:30:02.545Z,0.54
2024-05-09T12:31:02.545Z,0.54
2024-05-09T12:32:02.624Z,0.54
2024-05-09T12:33:02.676Z,0.55
2024-05-09T12:34:02.711Z,0.55
2024-05-09T12:35:02.689Z,0.57
2024-05-09T12:36:02.699Z,0.56
2024-05-09T12:37:02.827Z,0.58
2024-05-09T12:38:02.828Z,0.58
2024-05-09T12:39:02.856Z,0.58
2024-05-09T12:40:03.785Z,0.56
2024-05-09T12:41:02.946Z,0.57
2024-05-09T12:42:02.998Z,0.57
2024-05-09T12:43:03.077Z,0.56
2024-05-09T12:44:03.083Z,0.56
2024-05-09T12:45:03.136Z,0.55
2024-05-09T12:46:03.200Z,0.58
2024-05-09T12:47:03.212Z,0.55
2024-05-09T12:48:03.358Z,0.60
2024-05-09T12:49:03.563Z,0.56
2024-05-09T12:50:04.923Z,0.56
2024-05-09T12:51:03.377Z,0.57
2024-05-09T12:52:03.488Z,0.59
2024-05-09T12:53:04.400Z,0.58
2024-05-09T12:54:03.535Z,0.57
2024-05-09T12:55:03.711Z,0.58
2024-05-09T12:56:04.884Z,0.59
2024-05-09T12:57:03.683Z,0.59
2024-05-09T12:58:03.787Z,0.60
2024-05-09T12:59:03.769Z,0.61
2024-05-09T13:00:04.272Z,0.59
2024-05-09T13:01:03.903Z,0.58
2024-05-09T13:02:04.092Z,0.60
2024-05-09T13:03:04.151Z,0.58
2024-05-09T13:04:04.426Z,0.57
2024-05-09T13:05:04.469Z,0.57
2024-05-09T13:06:04.115Z,0.56
2024-05-09T13:07:07.259Z,0.56
2024-05-09T13:08:04.144Z,0.58
2024-05-09T13:09:04.165Z,0.58
2024-05-09T13:10:04.714Z,0.58
2024-05-09T13:11:04.142Z,0.58
2024-05-09T13:12:04.140Z,0.58
2024-05-09T13:13:04.266Z,0.57
2024-05-09T13:14:04.166Z,0.57
2024-05-09T13:15:04.164Z,0.59
2024-05-09T13:16:04.237Z,0.58
2024-05-09T13:17:04.206Z,0.57
2024-05-09T13:18:04.284Z,0.56
2024-05-09T13:19:04.192Z,0.55
2024-05-09T13:20:05.521Z,0.55
2024-05-09T13:21:04.189Z,0.56
2024-05-09T13:22:04.182Z,0.52
2024-05-09T13:23:04.637Z,0.51
2024-05-09T13:24:04.163Z,0.50
2024-05-09T13:25:04.179Z,0.50
2024-05-09T13:26:04.157Z,0.51
2024-05-09T13:27:04.166Z,0.50
2024-05-09T13:28:04.327Z,0.52
2024-05-09T13:29:04.190Z,0.52
2024-05-09T13:30:06.301Z,0.54